Main page
METAR-TAF:

METAR-TAF

Airports :

Båtsfjord Airport

Båtsfjord, Norway

latitude: 70-38N, longitude: 029-44E, elevation: 10 m

Current weather observation

The report was made 6 hours and 0 minutes ago, at 21:20 UTC
Wind 6 kt from the West/Northwest
Temperature -3°C
Humidity 80%
Pressure 985 hPa
Visibility 10 km or more
Scattered clouds at a height of 2200 ft
Broken clouds at a height of 3200 ft
light snow showers

METAR: ENBS 242120Z 29006KT 9999 -SHSN SCT022 BKN032 M03/M06 Q0985

Time: 04:20 (03:20 UTC)


TAF: missing

Weather observations and forecasts of more than 4000 airports (METAR and TAF reports).

The available stations are represented by yellow and red dots on the map.

Hover mouse over dot to see the name of the station.

Then click to see weather observations and forecasts.

To change the map : click on the green buttons with a black cross to zoom in, on the green button with a dash to zoom out, or on the green arrows for adjacent maps.


METAR-TAF: